Flight Track Log - Related Links

Times and Time Zones

All times are in EDT time to prevent confusion due to time zone crossing. See the UAL4086 flight status page for this flight to view local times or setup timezone preferences in your user account.

Time Position Orientation Groundspeed Altitude Reporting Facility
EDT Latitude Longitude Course Direction KTS MPH feet Rate Location/Type
Thu 10:11:32 AM 29.9617 -95.3436 247° West 174 200 700  Level Houston Center
Thu 10:12:22 AM 29.9239 -95.3650 206° Southwest 232 267 2,200 1,875 Climbing Houston Center
Thu 10:13:08 AM 29.8975 -95.4131 238° Southwest 262 302 3,700 2,636 Climbing Houston Center
Thu 10:13:28 AM 29.8783 -95.4428 233° Southwest 258 297 5,100 2,419 Climbing Houston Center
Thu 10:14:10 AM 29.8581 -95.4814 239° Southwest 259 298 6,200 2,114 Climbing Houston Center
Thu 10:15:00 AM 29.8418 -95.7579 249° West  Level FlightAware Approximate
Thu 10:15:13 AM 29.8389 -95.5653 255° West 272 313 8,800  Level Houston Center
Thu 10:16:00 AM 29.8044 -95.8631 247° West  Level FlightAware Approximate
Thu 10:16:15 AM 29.8269 -95.6700 263° West 275 316 10,900  Level Houston Center
Thu 10:17:17 AM 29.8164 -95.7742 263° West 324 373 11,700 1,210 Climbing Houston Center
Thu 10:18:19 AM 29.8067 -95.8814 264° West 338 389 13,400 1,500 Climbing Houston Center
Thu 10:19:21 AM 29.7958 -95.9914 264° West 344 396 14,800 1,306 Climbing Houston Center
Thu 10:20:23 AM 29.7850 -96.1139 264° West 348 400 16,100 1,210 Climbing Houston Center
Thu 10:21:25 AM 29.7822 -96.2272 268° West 355 409 17,300 919 Climbing Houston Center
Thu 10:22:27 AM 29.7911 -96.3422 275° West 361 415 18,000 864 Climbing Houston Center
Thu 10:23:30 AM 29.7994 -96.4575 275° West 364 419 19,100 1,248 Climbing Houston Center
Thu 10:24:32 AM 29.8100 -96.5969 275° West 365 420 20,600 1,306 Climbing Houston Center
Thu 10:25:34 AM 29.8189 -96.7131 275° West 366 421 21,800 1,113 Climbing Houston Center
Thu 10:26:36 AM 29.8272 -96.8297 275° West 368 423 22,900 677 Climbing Houston Center
Thu 10:27:38 AM 29.8350 -96.9506 274° West 380 437 23,200 484 Climbing Houston Center
Thu 10:28:40 AM 29.8450 -97.0747 275° West 391 450 23,900 387 Climbing Houston Center
Thu 10:29:42 AM 29.8553 -97.2258 275° West 398 458 24,000 -387 Climbing Houston Center
Thu 10:30:44 AM 29.8636 -97.3544 274° West 403 464 23,100 -1,824 Descending Houston Center
Thu 10:31:47 AM 29.8722 -97.4808 275° West 400 460 20,200 -2,579 Descending Houston Center
Thu 10:32:45 AM 29.8806 -97.6108 274° West 397 457 17,900 -2,613 Descending Houston Center
Thu 10:33:51 AM 29.8903 -97.7544 275° West 388 447 14,800 -2,824 Descending Houston Center
Thu 10:34:10 AM 29.8919 -97.7903 273° West 382 440 13,900 -1,935 Descending Houston Center
Thu 10:34:53 AM 29.8922 -97.8711 270° West 369 425 12,800 -1,574 Descending Houston Center
Thu 10:35:11 AM 29.8794 -97.9028 245° Southwest 359 413 12,300 -1,452 Descending Houston Center
Thu 10:35:55 AM 29.8500 -97.9719 244° Southwest 348 400 11,300 -1,279 Descending Houston Center
Thu 10:36:12 AM 29.8383 -97.9994 244° Southwest 322 371 11,000 -1,258 Descending Houston Center
Thu 10:36:57 AM 29.8122 -98.0636 245° Southwest 292 336 10,000 -1,570 Descending Houston Center
Thu 10:37:59 AM 29.7789 -98.1411 244° Southwest 271 312 8,200 -1,714 Descending Houston Center
Thu 10:38:14 AM 29.7717 -98.1594 246° West 265 305 7,800 -1,905 Descending Houston Center
Thu 10:39:02 AM 29.7442 -98.2233 244° Southwest 265 305 6,200 -843 Descending Houston Center
Thu 10:40:15 AM 29.7097 -98.3067 245° Southwest 222 255 6,100 -48 Descending Houston Center
Thu 10:41:06 AM 29.6856 -98.3611 243° Southwest 227 261 6,100  Level Houston Center
Thu 10:42:08 AM 29.6578 -98.4267 244° Southwest 229 264 6,100  Level Houston Center
Thu 10:43:10 AM 29.6750 -98.4944 286° West 226 260 6,100  Level Houston Center
Thu 10:44:12 AM 29.7086 -98.5497 305° West 211 243 6,100  Level Houston Center
Thu 10:45:13 AM 29.7411 -98.6036 305° West 184 212 6,100 -313 Level Houston Center
Thu 10:46:26 AM 29.7211 -98.6589 247° West 180 207 5,400 -905 Descending Houston Center
Thu 10:47:19 AM 29.6792 -98.6522 172° South 189 217 4,200 -1,190 Descending Houston Center
Thu 10:48:22 AM 29.6392 -98.6133 140° Southeast 172 198 3,100 -629 Descending Houston Center
Thu 10:49:23 AM 29.6106 -98.5722 129° Southeast 166 191 2,900 -197 Descending Houston Center

Login

Don't have an account? Register now (free) for customized features, flight alerts, and more!